Time;durP1;ratioP1;P1;durP2;ratioP2;P2;SDS_P1;SDS_P2;PMS_P1;PMS_P2;Temp;Humidity;BMP_temperature;BMP_pressure;BME280_temperature;BME280_humidity;BME280_pressure;Samples;Min_cycle;Max_cycle;Signal;HPM_P1;HPM_P2
2023/03/14 00:01:13;;;;;;;0.57;0.20;;;;;;;10.48;74.87;95245.28;4947734;29;20520;-83
2023/03/14 00:03:41;;;;;;;0.43;0.32;;;;;;;10.50;75.13;95248.47;4946829;29;20044;-84
2023/03/14 00:06:11;;;;;;;0.25;0.20;;;;;;;10.49;74.70;95252.13;4946115;29;20108;-82
2023/03/14 00:08:40;;;;;;;0.20;0.10;;;;;;;10.47;75.10;95259.34;4945287;29;20150;-83
2023/03/14 00:11:08;;;;;;;1.73;0.35;;;;;;;10.45;74.73;95269.19;4946113;29;20120;-81
2023/03/14 00:13:36;;;;;;;0.57;0.47;;;;;;;10.31;75.50;95278.91;4945560;29;20135;-83
2023/03/14 00:16:06;;;;;;;0.98;0.30;;;;;;;10.29;76.53;95251.47;4944695;29;20055;-79
2023/03/14 00:18:34;;;;;;;4.97;0.32;;;;;;;10.31;76.58;95239.81;4943628;29;20411;-78
2023/03/14 00:21:03;;;;;;;0.10;0.10;;;;;;;10.28;77.11;95162.03;4944265;29;20079;-82
2023/03/14 00:23:34;;;;;;;0.65;0.10;;;;;;;10.28;76.69;95161.25;4944800;29;20115;-80
2023/03/14 00:26:03;;;;;;;0.52;0.25;;;;;;;10.29;76.90;95163.63;4943316;29;20494;-81
2023/03/14 00:28:31;;;;;;;2.03;0.38;;;;;;;10.31;77.12;95145.19;4942487;29;20147;-84
2023/03/14 00:30:59;;;;;;;0.32;0.20;;;;;;;10.36;77.62;95147.16;4943010;29;20482;-80
2023/03/14 00:33:26;;;;;;;0.10;0.10;;;;;;;10.37;76.81;95138.34;4943573;29;20064;-80
2023/03/14 00:35:55;;;;;;;0.75;0.17;;;;;;;10.36;76.60;95139.31;4942277;29;20059;-78
2023/03/14 00:38:24;;;;;;;0.70;0.13;;;;;;;10.31;77.03;95132.16;4941378;29;20138;-79
2023/03/14 00:40:53;;;;;;;1.55;0.75;;;;;;;10.28;77.50;95116.94;4941504;29;20052;-82
2023/03/14 00:43:22;;;;;;;0.82;0.40;;;;;;;10.31;77.99;95140.78;4941002;29;20051;-81
2023/03/14 00:45:50;;;;;;;0.28;0.22;;;;;;;10.31;76.59;95093.06;4941204;29;20574;-82
2023/03/14 00:48:18;;;;;;;0.63;0.17;;;;;;;10.30;76.69;95081.06;4946041;29;20502;-84
2023/03/14 00:50:46;;;;;;;0.57;0.10;;;;;;;10.29;76.67;95048.97;4947206;29;20135;-83
2023/03/14 00:53:14;;;;;;;0.20;0.03;;;;;;;10.33;76.32;95022.47;4946728;29;20445;-85
2023/03/14 00:55:43;;;;;;;0.65;0.20;;;;;;;10.31;76.59;94971.34;4946427;29;20062;-82
2023/03/14 00:58:14;;;;;;;0.10;0.10;;;;;;;10.27;75.59;94928.47;4944954;29;20056;-82
2023/03/14 01:00:42;;;;;;;0.17;0.17;;;;;;;10.21;75.66;94957.22;4945630;29;20502;-82
2023/03/14 01:03:10;;;;;;;1.98;0.20;;;;;;;10.25;77.24;94990.44;4944410;29;20111;-85
2023/03/14 01:05:38;;;;;;;0.82;0.13;;;;;;;10.29;77.62;95004.66;4944659;29;20502;-79
2023/03/14 01:08:06;;;;;;;1.85;0.47;;;;;;;10.34;76.47;95050.91;4942794;29;20055;-78
2023/03/14 01:10:34;;;;;;;1.77;0.20;;;;;;;10.31;76.42;95070.41;4943550;29;20051;-79
2023/03/14 01:13:02;;;;;;;1.50;0.10;;;;;;;10.31;76.02;95067.78;4942950;29;20058;-82
2023/03/14 01:15:32;;;;;;;0.10;0.10;;;;;;;10.39;76.18;95081.56;4942355;29;20048;-80
2023/03/14 01:18:00;;;;;;;0.65;0.17;;;;;;;10.42;75.68;95081.91;4941947;29;20517;-81
2023/03/14 01:20:27;;;;;;;0.10;0.10;;;;;;;10.42;75.83;95088.94;4942329;29;20056;-80
2023/03/14 01:22:55;;;;;;;0.10;0.10;;;;;;;10.45;76.23;95088.50;4943272;29;20503;-81
2023/03/14 01:25:23;;;;;;;0.20;0.10;;;;;;;10.47;76.70;95091.69;4944067;29;20051;-81
2023/03/14 01:27:50;;;;;;;0.98;0.30;;;;;;;10.46;76.07;95097.91;4943041;29;20090;-80
2023/03/14 01:30:18;;;;;;;1.25;0.63;;;;;;;10.43;75.00;95095.72;4942972;29;20055;-82
2023/03/14 01:32:47;;;;;;;0.35;0.35;;;;;;;10.48;76.50;95096.69;4942899;29;20048;-86
2023/03/14 01:35:14;;;;;;;0.82;0.20;;;;;;;10.51;74.60;95090.22;4942886;29;20058;-84
2023/03/14 01:37:42;;;;;;;0.13;0.00;;;;;;;10.51;74.62;95078.00;4942750;29;20066;-81
2023/03/14 01:40:13;;;;;;;0.10;0.10;;;;;;;10.47;73.72;95083.84;4941699;29;20055;-81
2023/03/14 01:42:46;;;;;;;0.00;0.00;;;;;;;10.42;74.60;95076.69;4942092;29;20489;-80
2023/03/14 01:45:52;;;;;;;0.00;0.00;;;;;;;10.42;73.18;95065.47;4944029;29;20056;-80
2023/03/14 01:48:22;;;;;;;0.80;0.03;;;;;;;10.41;73.08;95040.44;4949186;29;20181;-81
2023/03/14 01:50:49;;;;;;;0.00;0.00;;;;;;;10.40;72.61;95037.00;4948883;29;20059;-81
2023/03/14 01:53:21;;;;;;;0.00;0.00;;;;;;;10.41;73.72;95035.22;4948301;29;20062;-80
2023/03/14 01:55:49;;;;;;;0.00;0.00;;;;;;;10.41;74.55;95035.22;4949066;29;20059;-84
2023/03/14 01:58:19;;;;;;;0.00;0.00;;;;;;;10.42;72.90;95035.00;4951314;29;20055;-84
2023/03/14 02:00:47;;;;;;;1.55;0.00;;;;;;;10.43;72.79;95022.75;4951875;29;20083;-86
2023/03/14 02:03:18;;;;;;;0.10;0.10;;;;;;;10.47;74.33;95024.72;4951222;29;20052;-82
2023/03/14 02:05:48;;;;;;;0.10;0.00;;;;;;;10.50;72.35;95023.47;4952529;29;20056;-85
2023/03/14 02:08:19;;;;;;;0.55;0.00;;;;;;;10.49;72.79;95022.69;4950251;29;20415;-85
2023/03/14 02:10:49;;;;;;;2.38;0.20;;;;;;;10.52;73.11;95011.03;4951824;29;20071;-85
2023/03/14 02:13:19;;;;;;;0.10;0.00;;;;;;;10.60;74.72;95013.31;4951586;29;20078;-85
2023/03/14 02:15:47;;;;;;;0.10;0.05;;;;;;;10.64;74.78;95003.25;4951977;29;20063;-83
2023/03/14 02:18:16;;;;;;;0.13;0.10;;;;;;;10.68;74.64;95005.19;4951891;29;20464;-81
2023/03/14 02:20:54;;;;;;;0.00;0.00;;;;;;;10.68;72.63;94999.97;4952585;29;20058;-83
2023/03/14 02:23:30;;;;;;;0.08;0.00;;;;;;;10.69;74.87;94991.16;4952430;29;20050;-82
2023/03/14 02:26:06;;;;;;;0.00;0.00;;;;;;;10.67;73.43;94987.97;4951255;29;20048;-84
2023/03/14 02:28:35;;;;;;;0.00;0.00;;;;;;;10.66;73.15;94975.91;4950895;29;20107;-81
2023/03/14 02:31:03;;;;;;;0.17;0.10;;;;;;;10.63;72.94;94976.38;4950477;29;20074;-85
2023/03/14 02:33:31;;;;;;;0.57;0.00;;;;;;;10.61;72.40;94988.03;4948395;29;20111;-82
2023/03/14 02:36:02;;;;;;;0.57;0.15;;;;;;;10.60;72.94;94991.66;4949626;29;20496;-81
2023/03/14 02:38:34;;;;;;;0.05;0.00;;;;;;;10.61;73.77;94996.66;4949360;29;20072;-82
2023/03/14 02:41:02;;;;;;;1.10;0.35;;;;;;;10.61;72.92;94998.47;4949389;29;20054;-83
2023/03/14 02:43:29;;;;;;;0.20;0.10;;;;;;;10.60;72.64;94994.25;4949099;29;20111;-82
2023/03/14 02:46:01;;;;;;;0.00;0.00;;;;;;;10.59;71.66;94996.09;4950275;29;20509;-82
2023/03/14 02:48:32;;;;;;;0.00;0.00;;;;;;;10.57;71.42;94992.91;4950447;29;20062;-82
2023/03/14 02:51:02;;;;;;;0.10;0.00;;;;;;;10.54;70.93;94975.09;4950664;29;20098;-82
2023/03/14 02:53:32;;;;;;;2.30;0.00;;;;;;;10.56;73.24;94972.25;4949821;29;20066;-84
2023/03/14 02:56:00;;;;;;;0.80;0.00;;;;;;;10.57;74.09;94955.59;4948837;29;20138;-86
2023/03/14 02:58:28;;;;;;;1.85;0.08;;;;;;;10.55;72.34;94953.22;4947833;29;20062;-88
2023/03/14 03:00:56;;;;;;;0.63;0.10;;;;;;;10.50;71.56;94951.28;4948885;29;20114;-85
2023/03/14 03:03:25;;;;;;;0.20;0.20;;;;;;;10.48;71.57;94955.13;4948107;29;20079;-83
2023/03/14 03:05:56;;;;;;;0.20;0.10;;;;;;;10.51;73.64;94957.28;4949903;29;20055;-82
2023/03/14 03:08:26;;;;;;;0.10;0.10;;;;;;;10.52;74.30;94953.66;4948559;29;20115;-84
2023/03/14 03:10:54;;;;;;;0.00;0.00;;;;;;;10.51;72.77;94955.47;4949180;29;20142;-85
2023/03/14 03:13:22;;;;;;;0.00;0.00;;;;;;;10.53;72.29;94947.41;4948685;29;20488;-84
2023/03/14 03:15:50;;;;;;;0.10;0.10;;;;;;;10.54;72.23;94951.63;4948724;29;20059;-85
2023/03/14 03:18:17;;;;;;;1.98;0.03;;;;;;;10.48;71.72;94948.09;4948007;29;20054;-85
2023/03/14 03:20:46;;;;;;;0.03;0.00;;;;;;;10.45;71.12;94947.72;4948249;29;20075;-78
2023/03/14 03:23:14;;;;;;;0.38;0.10;;;;;;;10.41;71.72;94941.38;4948739;29;20058;-81
2023/03/14 03:25:42;;;;;;;0.50;0.10;;;;;;;10.40;71.25;94929.34;4948607;29;20605;-83
2023/03/14 03:28:09;;;;;;;0.52;0.10;;;;;;;10.40;73.06;94929.34;4947559;29;20142;-83
2023/03/14 03:30:41;;;;;;;0.10;0.10;;;;;;;10.38;71.33;94919.16;4948405;29;20494;-83
2023/03/14 03:33:09;;;;;;;0.43;0.10;;;;;;;10.31;70.72;94919.25;4948158;29;20418;-82
2023/03/14 03:35:43;;;;;;;0.08;0.08;;;;;;;10.27;71.38;94910.22;4948197;29;20062;-81
2023/03/14 03:38:12;;;;;;;0.17;0.10;;;;;;;10.28;71.07;94904.03;4947366;29;20067;-82
2023/03/14 03:40:40;;;;;;;0.20;0.13;;;;;;;10.33;71.98;94898.19;4946784;29;20111;-79
2023/03/14 03:43:08;;;;;;;0.10;0.10;;;;;;;10.31;71.70;94898.38;4947991;29;20072;-80
2023/03/14 03:45:36;;;;;;;0.13;0.10;;;;;;;10.35;73.32;94911.00;4947801;29;20542;-83
2023/03/14 03:48:03;;;;;;;0.52;0.03;;;;;;;10.39;72.40;94906.94;4947762;29;20064;-86
2023/03/14 03:50:31;;;;;;;1.60;0.20;;;;;;;10.41;73.09;94910.13;4947770;29;20048;-84
2023/03/14 03:52:59;;;;;;;1.08;0.10;;;;;;;10.43;72.65;94898.44;4946788;29;20067;-85
2023/03/14 03:55:28;;;;;;;0.05;0.05;;;;;;;10.49;71.93;94899.34;4947041;29;20058;-86
2023/03/14 03:57:56;;;;;;;0.45;0.10;;;;;;;10.48;71.60;94882.13;4946057;29;20103;-82
2023/03/14 04:00:24;;;;;;;0.30;0.00;;;;;;;10.50;72.77;94882.72;4946147;29;20577;-81
2023/03/14 04:02:51;;;;;;;0.20;0.10;;;;;;;10.51;71.10;94884.28;4946150;29;20512;-80
2023/03/14 04:05:19;;;;;;;0.13;0.10;;;;;;;10.49;71.07;94886.31;4946724;29;20584;-82
2023/03/14 04:07:47;;;;;;;0.50;0.30;;;;;;;10.48;71.25;94884.75;4945437;29;20059;-82
2023/03/14 04:10:15;;;;;;;0.77;0.40;;;;;;;10.49;70.98;94870.66;4945076;29;20044;-81
2023/03/14 04:12:44;;;;;;;0.80;0.13;;;;;;;10.47;70.77;94877.91;4945542;29;20062;-82
2023/03/14 04:15:11;;;;;;;0.68;0.60;;;;;;;10.52;73.37;94891.09;4945980;29;20115;-86
2023/03/14 04:17:39;;;;;;;2.08;0.95;;;;;;;10.58;74.08;94887.56;4944143;29;20060;-83
2023/03/14 04:20:10;;;;;;;0.50;0.50;;;;;;;10.60;74.32;94893.38;4943194;29;20502;-84
2023/03/14 04:22:38;;;;;;;0.50;0.20;;;;;;;10.64;74.56;94904.16;4942593;29;20126;-80
2023/03/14 04:25:07;;;;;;;0.63;0.17;;;;;;;10.63;73.49;94907.78;4943072;29;20111;-83
2023/03/14 04:27:34;;;;;;;0.10;0.10;;;;;;;10.62;71.42;94906.19;4943796;29;20059;-79
2023/03/14 04:30:04;;;;;;;0.10;0.10;;;;;;;10.62;74.48;94896.53;4942935;29;20048;-81
2023/03/14 04:32:31;;;;;;;0.55;0.20;;;;;;;10.63;71.85;94902.56;4943883;29;20043;-80
2023/03/14 04:34:59;;;;;;;1.08;0.20;;;;;;;10.63;73.00;94900.75;4944018;29;20115;-82
2023/03/14 04:37:26;;;;;;;0.35;0.20;;;;;;;10.64;73.73;94904.94;4943556;29;20125;-84
2023/03/14 04:39:54;;;;;;;0.40;0.20;;;;;;;10.66;73.09;94915.94;4943816;29;20055;-80
2023/03/14 04:42:21;;;;;;;3.13;0.85;;;;;;;10.67;74.37;94909.72;4948123;29;20427;-81
2023/03/14 04:44:50;;;;;;;0.32;0.32;;;;;;;10.66;72.42;94913.34;4958977;23;20047;-79
2023/03/14 04:47:19;;;;;;;0.57;0.30;;;;;;;10.64;70.71;94904.16;4935766;29;20055;-79
2023/03/14 04:49:46;;;;;;;0.90;0.47;;;;;;;10.61;70.37;94910.63;4934935;29;20128;-80
2023/03/14 04:52:14;;;;;;;0.60;0.50;;;;;;;10.62;73.79;94899.16;4935705;29;20470;-80
2023/03/14 04:54:41;;;;;;;1.83;0.60;;;;;;;10.65;72.69;94901.34;4935663;29;20407;-79
2023/03/14 04:57:09;;;;;;;1.02;0.30;;;;;;;10.66;72.57;94896.91;4934849;29;20083;-79
2023/03/14 04:59:37;;;;;;;0.40;0.20;;;;;;;10.66;71.21;94887.25;4934638;29;20463;-79
2023/03/14 05:02:04;;;;;;;1.33;0.57;;;;;;;10.65;72.35;94880.47;4936168;29;20055;-80
2023/03/14 05:04:34;;;;;;;1.02;0.40;;;;;;;10.65;70.06;94877.06;4935447;29;20090;-79
2023/03/14 05:07:01;;;;;;;3.03;0.50;;;;;;;10.59;69.92;94865.72;4935386;29;20537;-79
2023/03/14 05:09:30;;;;;;;0.90;0.38;;;;;;;10.61;72.91;94865.50;4934053;29;20106;-80
2023/03/14 05:11:57;;;;;;;0.90;0.28;;;;;;;10.63;72.78;94855.66;4945188;29;20406;-79
2023/03/14 05:14:25;;;;;;;0.98;0.45;;;;;;;10.64;73.48;94842.34;4954356;28;20079;-80
2023/03/14 05:16:52;;;;;;;1.65;0.47;;;;;;;10.66;73.57;94834.31;4935656;29;20593;-79
2023/03/14 05:19:20;;;;;;;2.75;0.77;;;;;;;10.66;74.53;94832.50;4934559;29;20057;-79
2023/03/14 05:21:49;;;;;;;2.65;0.47;;;;;;;10.67;75.01;94828.06;4935668;29;20062;-79
2023/03/14 05:24:16;;;;;;;0.85;0.43;;;;;;;10.64;74.44;94831.94;4937446;29;20051;-79
2023/03/14 05:26:44;;;;;;;0.93;0.38;;;;;;;10.55;70.78;94822.84;4935384;29;20051;-79
2023/03/14 05:29:12;;;;;;;2.35;0.30;;;;;;;10.46;69.82;94829.41;4934234;29;20052;-79
2023/03/14 05:31:39;;;;;;;0.57;0.30;;;;;;;10.44;69.63;94826.25;4936580;29;20514;-80
2023/03/14 05:34:07;;;;;;;0.20;0.20;;;;;;;10.42;71.70;94828.28;4951685;29;20498;-80
2023/03/14 05:36:34;;;;;;;1.50;0.20;;;;;;;10.34;68.96;94821.56;4952713;29;20122;-80
2023/03/14 05:39:04;;;;;;;1.88;0.60;;;;;;;10.25;69.21;94826.28;4950582;29;20051;-78
2023/03/14 05:41:32;;;;;;;0.70;0.40;;;;;;;10.24;68.67;94816.88;4954864;28;20043;-80
2023/03/14 05:44:01;;;;;;;2.05;0.70;;;;;;;10.25;71.39;94823.66;4951943;28;20032;-80
2023/03/14 05:46:30;;;;;;;0.98;0.50;;;;;;;10.25;70.94;94813.25;4945688;29;20092;-80
2023/03/14 05:48:58;;;;;;;1.10;0.40;;;;;;;10.29;71.78;94811.81;4936806;29;20055;-79
2023/03/14 05:51:26;;;;;;;0.68;0.32;;;;;;;10.28;69.86;94810.22;4935314;29;20071;-79
2023/03/14 05:53:54;;;;;;;3.17;0.82;;;;;;;10.34;72.51;94811.13;4935356;29;20064;-77
2023/03/14 05:56:23;;;;;;;1.83;0.50;;;;;;;10.37;73.10;94796.88;4937952;29;20509;-80
2023/03/14 05:58:50;;;;;;;0.52;0.32;;;;;;;10.38;73.29;94790.66;4942195;29;20058;-80
2023/03/14 06:01:18;;;;;;;2.00;0.70;;;;;;;10.38;73.58;94804.47;4947408;28;20043;-80
2023/03/14 06:03:46;;;;;;;1.77;0.63;;;;;;;10.38;70.69;94795.84;4954111;28;20075;-80
2023/03/14 06:06:14;;;;;;;1.55;0.40;;;;;;;10.31;68.90;94816.81;4954085;28;20036;-81
2023/03/14 06:08:43;;;;;;;2.63;0.77;;;;;;;10.28;71.65;94806.81;4952708;28;20066;-80
2023/03/14 06:11:11;;;;;;;3.53;0.95;;;;;;;10.30;72.50;94810.81;4956441;29;20060;-80
2023/03/14 06:13:53;;;;;;;3.72;0.63;;;;;;;10.27;67.20;94810.41;4971907;28;20119;-79
2023/03/14 06:16:23;;;;;;;0.55;0.30;;;;;;;10.20;68.89;94804.53;4946780;29;20056;-80
2023/03/14 06:18:52;;;;;;;2.40;0.30;;;;;;;10.20;71.07;94797.50;4935075;29;20514;-80
2023/03/14 06:21:20;;;;;;;1.02;0.50;;;;;;;10.21;68.66;94791.28;4938303;29;20078;-80
2023/03/14 06:23:48;;;;;;;2.72;0.50;;;;;;;10.23;70.49;94797.06;4946489;29;20054;-80
2023/03/14 06:26:15;;;;;;;4.45;0.75;;;;;;;10.23;70.60;94802.28;4954918;28;20111;-80
2023/03/14 06:28:55;;;;;;;2.25;0.52;;;;;;;10.18;72.00;94789.09;4956637;28;20072;-80
2023/03/14 06:31:23;;;;;;;0.38;0.32;;;;;;;10.16;69.00;94774.72;4950644;29;20079;-80
2023/03/14 06:33:50;;;;;;;1.70;0.60;;;;;;;10.19;69.74;94776.84;4948947;29;20047;-80
2023/03/14 06:36:18;;;;;;;2.28;0.35;;;;;;;10.23;71.54;94778.00;4949021;29;20059;-80
2023/03/14 06:38:45;;;;;;;2.22;0.30;;;;;;;10.24;70.36;94779.59;4947132;29;20058;-80
2023/03/14 06:41:13;;;;;;;1.25;0.40;;;;;;;10.24;71.88;94784.81;4948037;29;20051;-80
2023/03/14 06:43:41;;;;;;;1.60;0.50;;;;;;;10.25;70.64;94786.41;4947355;29;20047;-80
2023/03/14 06:46:10;;;;;;;1.63;0.80;;;;;;;10.27;71.35;94806.00;4947176;29;20130;-80
2023/03/14 06:48:37;;;;;;;3.92;0.60;;;;;;;10.21;67.71;94800.88;4948809;29;20135;-80
2023/03/14 06:51:06;;;;;;;2.75;0.50;;;;;;;10.19;69.60;94808.94;4947489;29;20108;-80
2023/03/14 06:53:34;;;;;;;1.35;0.60;;;;;;;10.21;67.55;94811.31;4947991;29;20051;-80
2023/03/14 06:56:01;;;;;;;1.83;0.40;;;;;;;10.19;68.98;94803.72;4947913;29;20111;-80
2023/03/14 06:58:29;;;;;;;1.42;0.40;;;;;;;10.25;70.43;94808.03;4947763;29;20123;-80
2023/03/14 07:00:58;;;;;;;1.30;0.57;;;;;;;10.31;68.75;94807.16;4947967;29;20086;-80
2023/03/14 07:03:27;;;;;;;2.00;0.50;;;;;;;10.37;70.03;94805.50;4948571;29;20418;-80
2023/03/14 07:05:55;;;;;;;1.40;0.43;;;;;;;10.44;71.10;94805.38;4948357;29;20060;-80
2023/03/14 07:08:23;;;;;;;1.50;0.40;;;;;;;10.45;68.03;94805.19;4947300;29;20146;-80
2023/03/14 07:10:51;;;;;;;0.57;0.47;;;;;;;10.46;68.62;94798.94;4947502;29;20087;-80
2023/03/14 07:13:19;;;;;;;0.82;0.45;;;;;;;10.47;66.56;94804.94;4948217;29;20059;-80
2023/03/14 07:15:46;;;;;;;0.98;0.68;;;;;;;10.50;68.78;94812.31;4947641;29;20055;-80
2023/03/14 07:18:14;;;;;;;1.17;0.35;;;;;;;10.52;68.83;94815.50;4946385;29;20054;-79
2023/03/14 07:20:45;;;;;;;0.68;0.52;;;;;;;10.58;70.77;94816.38;4946322;29;20051;-80
2023/03/14 07:23:13;;;;;;;2.38;0.85;;;;;;;10.64;68.43;94820.72;4947821;29;20151;-80
2023/03/14 07:25:40;;;;;;;1.55;0.35;;;;;;;10.67;65.76;94826.28;4946907;29;20075;-80
2023/03/14 07:28:09;;;;;;;2.50;0.47;;;;;;;10.69;66.80;94829.47;4946641;29;20058;-80
2023/03/14 07:30:37;;;;;;;0.80;0.40;;;;;;;10.74;66.04;94834.00;4947606;29;20056;-80
2023/03/14 07:33:04;;;;;;;1.42;0.68;;;;;;;10.80;64.28;94834.88;4947351;29;20506;-80
2023/03/14 07:35:32;;;;;;;4.35;1.00;;;;;;;10.88;68.21;94840.56;4947383;29;20080;-80
2023/03/14 07:38:01;;;;;;;2.88;0.70;;;;;;;10.97;65.20;94841.03;4946327;29;20052;-80
2023/03/14 07:40:29;;;;;;;2.17;0.75;;;;;;;11.03;64.66;94840.13;4948330;29;20079;-80
2023/03/14 07:42:57;;;;;;;1.65;0.68;;;;;;;11.14;65.78;94841.13;4948571;29;20055;-80
2023/03/14 07:45:24;;;;;;;3.78;0.73;;;;;;;11.25;64.16;94847.38;4947500;29;20067;-80
2023/03/14 07:47:57;;;;;;;0.90;0.65;;;;;;;11.25;63.43;94847.38;4947116;29;20055;-80
2023/03/14 07:50:24;;;;;;;1.83;0.77;;;;;;;11.22;66.47;94847.84;4948702;29;20059;-80
2023/03/14 07:52:52;;;;;;;1.05;0.60;;;;;;;11.18;65.39;94841.47;4947704;29;20063;-80
2023/03/14 07:55:21;;;;;;;2.05;0.60;;;;;;;11.11;64.15;94846.81;4947383;29;20059;-80
2023/03/14 07:57:49;;;;;;;3.33;1.38;;;;;;;11.73;63.88;94839.22;4946736;29;20071;-80
2023/03/14 08:00:18;;;;;;;3.95;1.45;;;;;;;12.56;64.12;94836.25;4947697;29;20111;-80
2023/03/14 08:02:45;;;;;;;3.03;0.82;;;;;;;13.91;58.18;94828.16;4947121;29;20500;-80
2023/03/14 08:05:13;;;;;;;5.90;1.00;;;;;;;14.90;55.61;94830.63;4946568;29;20047;-80
2023/03/14 08:07:41;;;;;;;3.90;0.85;;;;;;;15.61;52.37;94827.59;4947685;29;20124;-80
2023/03/14 08:10:10;;;;;;;0.90;0.50;;;;;;;15.76;53.16;94832.94;4948176;29;20151;-80
2023/03/14 08:12:38;;;;;;;3.33;0.40;;;;;;;16.32;52.93;94823.63;4947874;29;20047;-80
2023/03/14 08:15:07;;;;;;;0.73;0.40;;;;;;;16.76;52.45;94837.09;4949782;29;20138;-80
2023/03/14 08:17:35;;;;;;;1.25;0.28;;;;;;;16.62;50.33;94822.88;4950351;29;20489;-80
2023/03/14 08:20:03;;;;;;;0.95;0.38;;;;;;;16.32;51.32;94834.16;4958330;28;20032;-80
2023/03/14 08:22:30;;;;;;;0.55;0.30;;;;;;;15.99;51.98;94825.69;4960821;28;20035;-79
2023/03/14 08:24:58;;;;;;;0.63;0.28;;;;;;;15.57;53.38;94835.22;4956932;28;20051;-80
2023/03/14 08:27:26;;;;;;;1.00;0.43;;;;;;;15.18;54.29;94830.28;4951744;29;20086;-80
2023/03/14 08:29:55;;;;;;;2.20;0.20;;;;;;;14.79;54.86;94835.78;4950579;29;20052;-80
2023/03/14 08:32:23;;;;;;;0.70;0.30;;;;;;;14.46;55.24;94838.66;4951180;29;20071;-80
2023/03/14 08:34:51;;;;;;;1.65;0.47;;;;;;;14.12;57.18;94838.84;4951227;29;20505;-80
2023/03/14 08:37:19;;;;;;;12.27;7.68;;;;;;;13.89;54.98;94839.94;4952137;29;20055;-80
2023/03/14 08:39:54;;;;;;;35.33;22.15;;;;;;;13.69;58.81;94845.72;4952034;29;20067;-80
2023/03/14 08:42:22;;;;;;;3.13;1.42;;;;;;;13.56;56.31;94834.56;4951242;29;20075;-80
2023/03/14 08:44:49;;;;;;;5.05;0.45;;;;;;;13.41;56.48;94842.22;4951675;29;20055;-80
2023/03/14 08:47:18;;;;;;;0.85;0.30;;;;;;;13.32;57.89;94843.69;4952113;29;20079;-80
2023/03/14 08:49:46;;;;;;;1.40;0.50;;;;;;;13.25;58.12;94832.53;4951793;29;20119;-80
2023/03/14 08:52:16;;;;;;;0.63;0.28;;;;;;;13.16;57.69;94835.59;4952374;29;20050;-80
2023/03/14 08:54:44;;;;;;;2.13;0.40;;;;;;;13.03;57.97;94843.78;4952409;29;20079;-80
2023/03/14 08:57:12;;;;;;;1.00;0.30;;;;;;;12.93;56.36;94835.78;4953605;29;20048;-80
2023/03/14 08:59:39;;;;;;;0.47;0.20;;;;;;;12.85;57.90;94829.09;4957515;29;20066;-80
2023/03/14 09:02:10;;;;;;;1.88;0.60;;;;;;;12.81;57.50;94835.06;4954694;29;20083;-80
2023/03/14 09:04:41;;;;;;;1.33;0.73;;;;;;;12.79;58.22;94827.47;4950344;29;20051;-80
2023/03/14 09:07:09;;;;;;;1.52;0.50;;;;;;;12.78;58.57;94837.13;4950604;29;20494;-80
2023/03/14 09:09:37;;;;;;;27.83;16.08;;;;;;;12.83;58.14;94835.63;4950838;29;20052;-80
2023/03/14 09:12:05;;;;;;;2.80;1.02;;;;;;;12.88;58.61;94827.84;4951532;29;20107;-80
2023/03/14 09:14:33;;;;;;;0.70;0.50;;;;;;;12.92;59.23;94823.72;4950898;29;20418;-80
2023/03/14 09:17:01;;;;;;;1.35;0.28;;;;;;;12.94;56.67;94826.88;4952044;29;20055;-80
2023/03/14 09:19:28;;;;;;;5.07;0.40;;;;;;;12.99;56.83;94832.22;4951660;29;20479;-80
2023/03/14 09:21:57;;;;;;;0.45;0.32;;;;;;;13.03;56.60;94835.94;4952183;29;20107;-80
2023/03/14 09:24:25;;;;;;;1.75;0.30;;;;;;;13.09;57.66;94826.31;4951876;29;20072;-80
2023/03/14 09:26:52;;;;;;;0.70;0.25;;;;;;;13.13;55.81;94822.97;4952228;29;20051;-80
2023/03/14 09:29:20;;;;;;;1.75;0.20;;;;;;;13.21;57.73;94829.63;4952238;29;20052;-80
2023/03/14 09:31:48;;;;;;;0.45;0.10;;;;;;;13.34;55.14;94833.75;4953429;29;20143;-80
2023/03/14 09:34:15;;;;;;;1.20;0.10;;;;;;;13.37;54.02;94820.97;4952938;29;20142;-80
2023/03/14 09:36:44;;;;;;;17.63;11.55;;;;;;;13.42;55.73;94812.38;4953328;29;20067;-80
2023/03/14 09:39:13;;;;;;;1.58;1.02;;;;;;;13.47;55.98;94817.69;4952283;29;20123;-80
2023/03/14 09:41:43;;;;;;;2.22;0.73;;;;;;;13.52;55.79;94828.22;4954140;29;20048;-80
2023/03/14 09:44:15;;;;;;;1.70;0.28;;;;;;;13.56;54.06;94828.53;4957802;29;20103;-80
2023/03/14 09:46:48;;;;;;;2.13;0.37;;;;;;;13.57;55.10;94830.91;4958465;29;20054;-80
2023/03/14 09:49:22;;;;;;;1.40;0.30;;;;;;;13.66;55.47;94827.84;4958369;29;20048;-80
2023/03/14 09:51:52;;;;;;;1.33;0.20;;;;;;;13.72;54.49;94832.13;4959183;29;20055;-80
2023/03/14 09:54:32;;;;;;;1.92;0.40;;;;;;;13.75;53.34;94815.91;4959514;29;20051;-80
2023/03/14 09:56:59;;;;;;;0.32;0.30;;;;;;;13.76;53.03;94812.25;4960385;28;20052;-80
2023/03/14 09:59:29;;;;;;;0.32;0.10;;;;;;;13.77;52.78;94840.84;4959367;29;20043;-80
2023/03/14 10:02:01;;;;;;;3.97;0.35;;;;;;;13.79;53.42;94830.09;4959761;29;20047;-80
2023/03/14 10:04:29;;;;;;;1.00;0.20;;;;;;;13.77;52.55;94830.38;4960109;29;20062;-80
2023/03/14 10:06:57;;;;;;;0.90;0.10;;;;;;;13.77;54.30;94824.31;4959390;29;20084;-80
2023/03/14 10:09:26;;;;;;;0.63;0.30;;;;;;;13.75;53.67;94832.44;4958891;29;20059;-80
2023/03/14 10:11:56;;;;;;;0.75;0.20;;;;;;;13.72;54.22;94832.13;4959534;29;20114;-80
2023/03/14 10:14:33;;;;;;;0.32;0.20;;;;;;;13.69;52.47;94843.09;4958417;29;20067;-81
2023/03/14 10:17:10;;;;;;;0.68;0.28;;;;;;;13.64;54.50;94820.22;4959605;29;20058;-80
2023/03/14 10:19:38;;;;;;;0.25;0.10;;;;;;;13.63;54.68;94823.91;4958954;29;20079;-80
2023/03/14 10:22:07;;;;;;;1.85;0.20;;;;;;;13.69;54.34;94816.91;4958972;29;20056;-80
2023/03/14 10:24:36;;;;;;;0.85;0.43;;;;;;;13.78;52.74;94818.06;4960006;29;20039;-80
2023/03/14 10:27:07;;;;;;;0.57;0.13;;;;;;;13.82;52.03;94806.03;4960238;29;20039;-80
2023/03/14 10:29:35;;;;;;;28.67;16.35;;;;;;;13.89;54.32;94817.13;4959814;29;20046;-80
2023/03/14 10:32:05;;;;;;;5.53;3.60;;;;;;;14.04;53.49;94818.31;4960314;29;20430;-80
2023/03/14 10:34:34;;;;;;;1.02;0.40;;;;;;;14.18;53.93;94814.25;4960890;29;20048;-80
2023/03/14 10:37:08;;;;;;;0.43;0.10;;;;;;;14.30;51.83;94825.41;4960842;29;20107;-80
2023/03/14 10:39:46;;;;;;;0.50;0.10;;;;;;;14.45;52.53;94818.69;4960606;28;20056;-80
2023/03/14 10:42:20;;;;;;;0.20;0.10;;;;;;;14.60;51.47;94822.25;4961456;28;20059;-80
2023/03/14 10:44:55;;;;;;;1.90;0.13;;;;;;;14.71;51.93;94848.59;5039476;23;20037;-81
2023/03/14 10:47:33;;;;;;;1.45;0.30;;;;;;;14.69;51.55;94840.97;5001529;28;20042;-81
2023/03/14 10:50:26;;;;;;;2.58;0.20;;;;;;;14.65;50.46;94847.78;5001462;28;20058;-81
2023/03/14 10:52:59;;;;;;;0.40;0.03;;;;;;;14.61;52.35;94833.56;5001337;28;20095;-81
2023/03/14 10:55:49;;;;;;;0.70;0.20;;;;;;;14.64;51.65;94854.03;4984702;28;20061;-81
2023/03/14 10:58:29;;;;;;;23.17;14.63;;;;;;;14.73;52.39;94842.03;4981705;28;20066;-81
2023/03/14 11:01:32;;;;;;;0.90;0.50;;;;;;;14.66;51.85;94838.84;4982223;28;20118;-81
2023/03/14 11:04:31;;;;;;;2.60;0.10;;;;;;;14.53;49.43;94836.59;4968374;28;20035;-81
2023/03/14 11:07:16;;;;;;;1.73;0.10;;;;;;;14.51;49.81;94822.94;4981838;28;20098;-81
2023/03/14 11:10:01;;;;;;;0.15;0.10;;;;;;;14.65;51.25;94831.22;4981520;28;20036;-81
2023/03/14 11:12:48;;;;;;;0.88;0.10;;;;;;;14.90;50.75;94828.00;4981868;28;20035;-82
2023/03/14 11:15:28;;;;;;;1.20;0.00;;;;;;;15.09;48.68;94823.94;4981566;28;20035;-82
2023/03/14 11:18:28;;;;;;;0.10;0.10;;;;;;;15.28;50.47;94829.53;4981469;28;20266;-81
2023/03/14 11:21:03;;;;;;;0.10;0.10;;;;;;;15.58;49.32;94826.28;4981535;28;20055;-82
2023/03/14 11:23:49;;;;;;;13.30;8.18;;;;;;;15.80;47.45;94838.50;4981378;28;20059;-81
2023/03/14 11:26:36;;;;;;;3.92;2.45;;;;;;;16.03;48.81;94838.03;4981312;28;20039;-82
2023/03/14 11:29:30;;;;;;;0.17;0.10;;;;;;;16.24;50.34;94843.34;4981343;28;20042;-81
2023/03/14 11:32:16;;;;;;;1.05;0.10;;;;;;;16.31;49.01;94854.44;4981355;28;20297;-81
2023/03/14 11:34:53;;;;;;;0.25;0.20;;;;;;;16.27;47.70;94848.09;4981115;28;20051;-83
2023/03/14 11:37:31;;;;;;;0.10;0.00;;;;;;;16.16;48.38;94836.75;4981506;28;20039;-81
2023/03/14 11:40:16;;;;;;;0.20;0.15;;;;;;;16.10;49.01;94831.75;4981091;28;20051;-81
2023/03/14 11:43:02;;;;;;;0.28;0.10;;;;;;;16.06;48.87;94839.34;4981296;28;20039;-82
2023/03/14 11:45:49;;;;;;;12.93;8.43;;;;;;;15.90;47.25;94832.50;4980590;28;20058;-82
2023/03/14 11:48:33;;;;;;;0.40;0.30;;;;;;;15.66;49.43;94846.81;4980754;28;20112;-81